Terminal Aerodrome Forecast
Issued by NWS Cleveland, OH

Home | Current Version | Previous Version | Text Only | Print | Product List | Glossary Off
Versions: 1 2 3 4 5 6 7 8 9 10 11 12

000
FTUS41 KCLE 191100
TAFCAK
TAF
KCAK 191120Z 1912/2012 32008KT P6SM SKC
     FM191700 32010G15KT P6SM OVC040
     FM200000 31008KT P6SM OVC040
     FM200700 35009KT P6SM BKN250=

USA.gov is the U.S. government's official web portal to all federal, state and local government web resources and services.